Altoona, IA

2:46 AM CDT on August 30, 2016 (GMT -0500)
Altoona, Iowa (NE) | | Change Station

Elev 938 ft 41.64 °N, 93.45 °W | Updated 4 seconds ago

Mostly Cloudy
Mostly Cloudy
71.4 °F
Feels Like 71.4 °F
N
0.9
Wind Variable Wind from North
Gusts 2.5 mph

Today
High -- | Low -- °F
--% Chance of Precip.
Yesterday
High -- | Low -- °F
Precip. -- in
Pressure 30.14 in
Visibility 10.0 miles
Clouds Scattered Clouds 12000 ft
Mostly Cloudy 14000 ft
Mostly Cloudy 25000 ft
Dew Point 70 °F
Humidity 96%
Rainfall 0.00 in
Snow Depth Not available.
6:38 AM 7:49 PM
Waning Crescent, 5% visible
METAR KDSM 300654Z 33005KT 10SM SCT120 BKN140 BKN250 23/21 A3016 RMK AO2 RAB15E54 SLP204 FRQ LTGIC DSNT E-SE CB DSNT E-SE MOV NE P0000 T02280211 $
Pressure 30.14 in
Visibility 10.0 miles
Clouds Scattered Clouds 12000 ft
Mostly Cloudy 14000 ft
Mostly Cloudy 25000 ft
Dew Point 70 °F
Humidity 96%
Rainfall 0.00 in
Snow Depth Not available.
6:38 AM 7:49 PM
Waning Crescent, 5% visible
METAR KDSM 300654Z 33005KT 10SM SCT120 BKN140 BKN250 23/21 A3016 RMK AO2 RAB15E54 SLP204 FRQ LTGIC DSNT E-SE CB DSNT E-SE MOV NE P0000 T02280211 $

10-Day Weather Forecast

Almanac

Astronomy

Aug. 30, 2016 Rise Set
Actual Time
Civil Twilight
Nautical Twilight
Astronomical Twilight
Moon
Length of Visible Light
Length of Day
Tomorrow will be .
, % of the Moon is Illuminated

Today's Extremes

State Highs State Lows

Community

WunderPhotos

Upload Photos

1,935,795 photos uploaded!

WunderBlog® & News

Nearby

Air Quality

  Air Quality AQ Index Pollutant
Not available.

Snow Depth

Station Depth Elevation

Earthquake Activity

City Distance Mag. Time & Date
Minimum magnitude displayed is 2.5.

Coastal Water Temperatures

Place Temperature

Stations

Nearby Weather Stations

Station Location Temp. Windchill Dew Point Humidity Wind Precip. Elev Updated Type
                   

Watches & Warnings

There are currently no watches in effect.